Time,TemperatureF,DewpointF,PressureIn,WindDirection,WindDirectionDegrees,WindSpeedMPH,WindSpeedGustMPH,Humidity,HourlyPrecipIn,Conditions,Clouds,dailyrainin,SolarRadiationWatts/m^2,SoftwareType,DateUTC
2013-08-08 00:01:00,60.0,51.0,-100.00,North,359,2.0,7.0,73,0.00,,,0.00,0.000000,,2013-08-08 07:01:00,
2013-08-08 00:43:00,58.0,51.0,-100.00,NNE,19,1.0,4.0,78,0.00,,,0.00,0.000000,,2013-08-08 07:43:00,
2013-08-08 00:53:00,58.0,51.0,-100.00,NNE,19,1.0,4.0,78,0.00,,,0.00,0.000000,,2013-08-08 07:53:00,
2013-08-08 01:01:00,58.0,51.0,-100.00,NNE,19,1.0,4.0,78,0.00,,,0.00,0.000000,,2013-08-08 08:01:00,
2013-08-08 01:32:00,57.0,52.0,-100.00,NE,45,0.0,3.0,83,0.00,,,0.00,0.000000,,2013-08-08 08:32:00,
2013-08-08 01:43:00,57.0,52.0,-100.00,NE,45,0.0,3.0,83,0.00,,,0.00,0.000000,,2013-08-08 08:43:00,
2013-08-08 01:53:00,57.0,52.0,-100.00,NE,45,0.0,3.0,83,0.00,,,0.00,0.000000,,2013-08-08 08:53:00,
2013-08-08 02:01:00,57.0,52.0,-100.00,NE,45,0.0,3.0,83,0.00,,,0.00,0.000000,,2013-08-08 09:01:00,
2013-08-08 02:32:00,57.0,52.0,-100.00,NNE,13,1.0,2.0,82,0.00,,,0.00,0.000000,,2013-08-08 09:32:00,
2013-08-08 02:43:00,57.0,52.0,-100.00,NNE,13,1.0,2.0,82,0.00,,,0.00,0.000000,,2013-08-08 09:43:00,
2013-08-08 02:53:00,57.0,52.0,-100.00,NNE,13,1.0,2.0,82,0.00,,,0.00,0.000000,,2013-08-08 09:53:00,
2013-08-08 03:01:00,57.0,52.0,-100.00,NNE,13,1.0,2.0,82,0.00,,,0.00,0.000000,,2013-08-08 10:01:00,
2013-08-08 03:32:00,56.0,52.0,-100.00,NW,317,0.0,4.0,86,0.00,,,0.00,0.000000,,2013-08-08 10:32:00,
2013-08-08 03:43:00,56.0,52.0,-100.00,NW,317,0.0,4.0,86,0.00,,,0.00,0.000000,,2013-08-08 10:43:00,
2013-08-08 03:52:00,56.0,52.0,-100.00,NW,317,0.0,4.0,86,0.00,,,0.00,0.000000,,2013-08-08 10:52:00,
2013-08-08 04:01:00,56.0,52.0,-100.00,NW,317,0.0,4.0,86,0.00,,,0.00,0.000000,,2013-08-08 11:01:00,
2013-08-08 04:32:00,53.0,50.0,-100.00,NE,52,0.0,3.0,91,0.00,,,0.00,0.000000,,2013-08-08 11:32:00,
2013-08-08 04:43:00,53.0,50.0,-100.00,NE,52,0.0,3.0,91,0.00,,,0.00,0.000000,,2013-08-08 11:43:00,
2013-08-08 04:52:00,53.0,50.0,-100.00,NE,52,0.0,3.0,91,0.00,,,0.00,0.000000,,2013-08-08 11:52:00,
2013-08-08 05:01:00,53.0,50.0,-100.00,NE,52,0.0,3.0,91,0.00,,,0.00,0.000000,,2013-08-08 12:01:00,
2013-08-08 05:32:00,53.0,52.0,-100.00,North,357,0.0,3.0,96,0.00,,,0.00,0.000000,,2013-08-08 12:32:00,
2013-08-08 05:43:00,53.0,52.0,-100.00,North,357,0.0,3.0,96,0.00,,,0.00,0.000000,,2013-08-08 12:43:00,
2013-08-08 05:53:00,53.0,52.0,-100.00,North,357,0.0,3.0,96,0.00,,,0.00,0.000000,,2013-08-08 12:53:00,
2013-08-08 06:01:00,53.0,52.0,-100.00,North,357,0.0,3.0,96,0.00,,,0.00,0.000000,,2013-08-08 13:01:00,
2013-08-08 06:32:00,53.0,52.0,-100.00,NNE,25,0.0,2.0,95,0.00,,,0.00,0.000000,,2013-08-08 13:32:00,
2013-08-08 06:43:00,53.0,52.0,-100.00,NNE,25,0.0,2.0,95,0.00,,,0.00,0.000000,,2013-08-08 13:43:00,
2013-08-08 06:52:00,53.0,52.0,-100.00,NNE,25,0.0,2.0,95,0.00,,,0.00,0.000000,,2013-08-08 13:52:00,
2013-08-08 07:02:00,53.0,52.0,-100.00,NNE,25,0.0,2.0,95,0.00,,,0.00,0.000000,,2013-08-08 14:02:00,
2013-08-08 07:32:00,53.0,52.0,-100.00,North,3,0.0,2.0,96,0.00,,,0.00,21.000000,,2013-08-08 14:32:00,
2013-08-08 07:43:00,53.0,52.0,-100.00,North,3,0.0,2.0,96,0.00,,,0.00,21.000000,,2013-08-08 14:43:00,
2013-08-08 07:53:00,53.0,52.0,-100.00,North,3,0.0,2.0,96,0.00,,,0.00,21.000000,,2013-08-08 14:53:00,
2013-08-08 08:02:00,53.0,52.0,-100.00,North,3,0.0,2.0,96,0.00,,,0.00,21.000000,,2013-08-08 15:02:00,
2013-08-08 08:43:00,55.0,53.0,-100.00,NW,325,0.0,3.0,92,0.00,,,0.00,76.000000,,2013-08-08 15:43:00,
2013-08-08 08:53:00,55.0,53.0,-100.00,NW,325,0.0,3.0,92,0.00,,,0.00,76.000000,,2013-08-08 15:53:00,
2013-08-08 09:01:00,55.0,53.0,-100.00,NW,325,0.0,3.0,92,0.00,,,0.00,76.000000,,2013-08-08 16:01:00,
2013-08-08 09:32:00,62.0,54.0,-100.00,WNW,285,2.0,6.0,76,0.00,,,0.00,325.000000,,2013-08-08 16:32:00,
2013-08-08 09:42:00,62.0,54.0,-100.00,WNW,285,2.0,6.0,76,0.00,,,0.00,325.000000,,2013-08-08 16:42:00,
2013-08-08 09:52:00,62.0,54.0,-100.00,WNW,285,2.0,6.0,76,0.00,,,0.00,325.000000,,2013-08-08 16:52:00,
2013-08-08 10:01:00,62.0,54.0,-100.00,WNW,285,2.0,6.0,76,0.00,,,0.00,325.000000,,2013-08-08 17:01:00,
2013-08-08 10:32:00,65.0,55.0,-100.00,West,280,3.0,7.0,71,0.00,,,0.00,528.000000,,2013-08-08 17:32:00,
2013-08-08 10:43:00,65.0,55.0,-100.00,West,280,3.0,7.0,71,0.00,,,0.00,528.000000,,2013-08-08 17:43:00,
2013-08-08 10:52:00,65.0,55.0,-100.00,West,280,3.0,7.0,71,0.00,,,0.00,528.000000,,2013-08-08 17:52:00,
2013-08-08 11:01:00,65.0,55.0,-100.00,West,280,3.0,7.0,71,0.00,,,0.00,528.000000,,2013-08-08 18:01:00,
2013-08-08 11:32:00,67.0,56.0,-100.00,WNW,287,4.0,10.0,68,0.00,,,0.00,684.000000,,2013-08-08 18:32:00,
2013-08-08 11:43:00,67.0,56.0,-100.00,WNW,287,4.0,10.0,68,0.00,,,0.00,684.000000,,2013-08-08 18:43:00,
2013-08-08 11:52:00,67.0,56.0,-100.00,WNW,287,4.0,10.0,68,0.00,,,0.00,684.000000,,2013-08-08 18:52:00,
2013-08-08 12:01:00,67.0,56.0,-100.00,WNW,287,4.0,10.0,68,0.00,,,0.00,684.000000,,2013-08-08 19:01:00,
2013-08-08 12:32:00,68.0,56.0,-100.00,WNW,284,4.0,11.0,65,0.00,,,0.00,787.000000,,2013-08-08 19:32:00,
2013-08-08 12:43:00,68.0,56.0,-100.00,WNW,284,4.0,11.0,65,0.00,,,0.00,787.000000,,2013-08-08 19:43:00,
2013-08-08 12:57:00,68.0,56.0,-100.00,WNW,284,4.0,11.0,65,0.00,,,0.00,787.000000,,2013-08-08 19:57:00,
2013-08-08 13:32:00,70.0,55.0,-100.00,WNW,285,4.0,9.0,60,0.00,,,0.00,850.000000,,2013-08-08 20:32:00,
2013-08-08 13:42:00,70.0,55.0,-100.00,WNW,285,4.0,9.0,60,0.00,,,0.00,850.000000,,2013-08-08 20:42:00,
2013-08-08 13:52:00,70.0,55.0,-100.00,WNW,285,4.0,9.0,60,0.00,,,0.00,850.000000,,2013-08-08 20:52:00,
2013-08-08 14:01:00,70.0,55.0,-100.00,WNW,285,4.0,9.0,60,0.00,,,0.00,850.000000,,2013-08-08 21:01:00,
2013-08-08 14:34:00,71.0,55.0,-100.00,WNW,287,5.0,12.0,58,0.00,,,0.00,863.000000,,2013-08-08 21:34:00,
2013-08-08 14:45:00,71.0,55.0,-100.00,WNW,287,5.0,12.0,58,0.00,,,0.00,863.000000,,2013-08-08 21:45:00,
2013-08-08 14:55:00,71.0,55.0,-100.00,WNW,287,5.0,12.0,58,0.00,,,0.00,863.000000,,2013-08-08 21:55:00,
2013-08-08 15:37:00,73.0,57.0,-100.00,WNW,288,4.0,11.0,58,0.00,,,0.00,804.000000,,2013-08-08 22:37:00,
2013-08-08 15:49:00,73.0,57.0,-100.00,WNW,288,4.0,11.0,58,0.00,,,0.00,804.000000,,2013-08-08 22:49:00,
2013-08-08 15:56:00,73.0,57.0,-100.00,WNW,288,4.0,11.0,58,0.00,,,0.00,804.000000,,2013-08-08 22:56:00,
2013-08-08 16:56:00,72.0,56.0,-100.00,WNW,303,5.0,10.0,58,0.00,,,0.00,599.000000,,2013-08-08 23:56:00,
2013-08-08 17:01:00,72.0,56.0,-100.00,WNW,303,5.0,10.0,58,0.00,,,0.00,599.000000,,2013-08-09 00:01:00,
2013-08-08 17:47:00,68.0,57.0,-100.00,WNW,296,3.0,11.0,67,0.00,,,0.00,318.000000,,2013-08-09 00:47:00,
2013-08-08 17:55:00,68.0,57.0,-100.00,WNW,296,3.0,11.0,67,0.00,,,0.00,318.000000,,2013-08-09 00:55:00,
2013-08-08 18:01:00,68.0,57.0,-100.00,WNW,296,3.0,11.0,67,0.00,,,0.00,318.000000,,2013-08-09 01:01:00,
2013-08-08 18:37:00,73.0,58.0,-100.00,West,280,2.0,10.0,59,0.00,,,0.00,392.000000,,2013-08-09 01:37:00,
2013-08-08 18:46:00,73.0,58.0,-100.00,West,280,2.0,10.0,59,0.00,,,0.00,392.000000,,2013-08-09 01:46:00,
2013-08-08 18:58:00,73.0,58.0,-100.00,West,280,2.0,10.0,59,0.00,,,0.00,392.000000,,2013-08-09 01:58:00,
2013-08-08 19:47:00,66.0,56.0,-100.00,WNW,295,2.0,6.0,71,0.00,,,0.00,157.000000,,2013-08-09 02:47:00,
2013-08-08 19:56:00,66.0,56.0,-100.00,WNW,295,2.0,6.0,71,0.00,,,0.00,157.000000,,2013-08-09 02:56:00,
2013-08-08 20:03:00,66.0,56.0,-100.00,WNW,295,2.0,6.0,71,0.00,,,0.00,157.000000,,2013-08-09 03:03:00,
2013-08-08 20:35:00,63.0,57.0,-100.00,WNW,289,0.0,5.0,80,0.00,,,0.00,58.000000,,2013-08-09 03:35:00,
2013-08-08 20:47:00,63.0,57.0,-100.00,WNW,289,0.0,5.0,80,0.00,,,0.00,58.000000,,2013-08-09 03:47:00,
2013-08-08 20:55:00,63.0,57.0,-100.00,WNW,289,0.0,5.0,80,0.00,,,0.00,58.000000,,2013-08-09 03:55:00,
2013-08-08 21:01:00,63.0,57.0,-100.00,WNW,289,0.0,5.0,80,0.00,,,0.00,58.000000,,2013-08-09 04:01:00,
2013-08-08 21:33:00,59.0,55.0,-100.00,NE,35,2.0,3.0,88,0.00,,,0.00,4.000000,,2013-08-09 04:33:00,
2013-08-08 21:43:00,59.0,55.0,-100.00,NE,35,2.0,3.0,88,0.00,,,0.00,4.000000,,2013-08-09 04:43:00,
2013-08-08 21:53:00,59.0,55.0,-100.00,NE,35,2.0,3.0,88,0.00,,,0.00,4.000000,,2013-08-09 04:53:00,
2013-08-08 22:01:00,59.0,55.0,-100.00,NE,35,2.0,3.0,88,0.00,,,0.00,4.000000,,2013-08-09 05:01:00,
2013-08-08 22:33:00,59.0,56.0,-100.00,ENE,60,1.0,3.0,91,0.00,,,0.00,0.000000,,2013-08-09 05:33:00,
2013-08-08 22:43:00,59.0,56.0,-100.00,ENE,60,1.0,3.0,91,0.00,,,0.00,0.000000,,2013-08-09 05:43:00,
2013-08-08 22:52:00,59.0,56.0,-100.00,ENE,60,1.0,3.0,91,0.00,,,0.00,0.000000,,2013-08-09 05:52:00,
2013-08-08 23:01:00,59.0,56.0,-100.00,ENE,60,1.0,3.0,91,0.00,,,0.00,0.000000,,2013-08-09 06:01:00,
2013-08-08 23:32:00,59.0,56.0,-100.00,ENE,68,1.0,2.0,90,0.00,,,0.00,0.000000,,2013-08-09 06:32:00,
2013-08-08 23:43:00,59.0,56.0,-100.00,ENE,68,1.0,2.0,90,0.00,,,0.00,0.000000,,2013-08-09 06:43:00,
2013-08-08 23:52:00,59.0,56.0,-100.00,ENE,68,1.0,2.0,90,0.00,,,0.00,0.000000,,2013-08-09 06:52:00,